Time;durP1;ratioP1;P1;durP2;ratioP2;P2;SDS_P1;SDS_P2;PMS_P1;PMS_P2;Temp;Humidity;BMP_temperature;BMP_pressure;BME280_temperature;BME280_humidity;BME280_pressure;Samples;Min_cycle;Max_cycle;Signal;HPM_P1;HPM_P2
2021/06/02 00:00:10;;;;;;;42.53;18.25;;;;;;;17.59;56.37;100729.00;4428823;32;20076;-76
2021/06/02 00:02:41;;;;;;;37.97;17.35;;;;;;;17.51;56.75;100735.53;4426538;32;20091;-76
2021/06/02 00:05:07;;;;;;;31.58;17.37;;;;;;;17.48;56.94;100733.66;4425226;32;20034;-76
2021/06/02 00:07:33;;;;;;;34.10;17.42;;;;;;;17.48;56.87;100739.34;4422243;32;20045;-76
2021/06/02 00:09:59;;;;;;;40.42;19.52;;;;;;;17.39;57.23;100728.00;4422844;32;20065;-76
2021/06/02 00:12:26;;;;;;;34.28;18.10;;;;;;;17.43;57.20;100725.81;4411581;32;20058;-76
2021/06/02 00:14:52;;;;;;;40.97;19.25;;;;;;;17.41;57.20;100734.00;4424460;32;20432;-76
2021/06/02 00:17:18;;;;;;;43.63;18.58;;;;;;;17.32;57.50;100719.84;4415909;32;20050;-76
2021/06/02 00:19:45;;;;;;;40.55;21.12;;;;;;;17.18;58.28;100732.75;4416193;32;20046;-76
2021/06/02 00:22:11;;;;;;;32.58;17.77;;;;;;;17.14;58.26;100731.34;4410120;32;20105;-76
2021/06/02 00:24:38;;;;;;;35.10;18.48;;;;;;;16.94;58.89;100734.03;4415014;32;20668;-76
2021/06/02 00:27:06;;;;;;;30.77;17.62;;;;;;;16.98;58.56;100726.09;4416536;32;20050;-76
2021/06/02 00:29:34;;;;;;;33.58;18.80;;;;;;;17.10;58.20;100734.41;4414118;32;20069;-76
2021/06/02 00:32:02;;;;;;;36.28;18.45;;;;;;;16.91;58.90;100732.13;4418689;32;20050;-76
2021/06/02 00:34:29;;;;;;;37.33;19.45;;;;;;;16.89;58.85;100735.47;4418565;32;20068;-76
2021/06/02 00:36:55;;;;;;;34.05;18.15;;;;;;;16.82;59.29;100732.19;4416486;32;20041;-76
2021/06/02 00:39:20;;;;;;;36.72;18.65;;;;;;;16.79;59.35;100741.66;4413088;32;20088;-76
2021/06/02 00:41:47;;;;;;;35.95;19.87;;;;;;;16.78;59.29;100735.19;4412027;32;20114;-76
2021/06/02 00:44:17;;;;;;;38.08;20.77;;;;;;;16.63;60.02;100736.38;4422218;32;20431;-76
2021/06/02 00:46:44;;;;;;;36.97;18.75;;;;;;;16.68;59.78;100733.66;4424093;32;20045;-76
2021/06/02 00:49:12;;;;;;;35.60;19.62;;;;;;;16.65;59.88;100728.16;4417950;32;20046;-76
2021/06/02 00:51:39;;;;;;;35.45;19.90;;;;;;;16.65;59.86;100725.31;4410925;32;20069;-76
2021/06/02 00:54:06;;;;;;;41.83;20.95;;;;;;;16.55;60.25;100724.59;4412752;32;20435;-76
2021/06/02 00:57:11;;;;;;;36.47;19.35;;;;;;;16.56;60.18;100729.00;4415776;32;20507;-76
2021/06/02 00:59:42;;;;;;;37.58;19.40;;;;;;;16.50;60.33;100727.28;4418910;32;20104;-76
2021/06/02 01:02:17;;;;;;;37.45;18.77;;;;;;;16.50;60.36;100718.78;4413144;32;20072;-76
2021/06/02 01:04:45;;;;;;;31.92;18.20;;;;;;;16.50;60.26;100715.94;4420790;32;20481;-76
2021/06/02 01:07:12;;;;;;;31.17;18.27;;;;;;;16.49;60.26;100714.34;4411416;32;20438;-76
2021/06/02 01:09:46;;;;;;;31.83;17.62;;;;;;;16.38;60.76;100719.72;4413880;32;20186;-76
2021/06/02 01:12:16;;;;;;;37.90;17.52;;;;;;;16.46;60.34;100710.41;4416436;32;20077;-76
2021/06/02 01:14:44;;;;;;;34.97;19.00;;;;;;;16.37;60.58;100707.56;4413884;32;20066;-76
2021/06/02 01:17:13;;;;;;;31.65;17.75;;;;;;;16.44;60.58;100704.41;4413794;32;20050;-76
2021/06/02 01:19:40;;;;;;;29.70;18.08;;;;;;;16.32;60.93;100708.22;4417637;32;20599;-76
2021/06/02 01:22:06;;;;;;;36.10;18.73;;;;;;;16.30;61.02;100707.13;4419598;32;20050;-76
2021/06/02 01:24:32;;;;;;;37.20;19.83;;;;;;;16.18;61.35;100700.38;4414207;32;20559;-76
2021/06/02 01:27:01;;;;;;;39.80;21.58;;;;;;;16.25;61.18;100702.09;4415148;32;20141;-76
2021/06/02 01:29:29;;;;;;;48.15;24.12;;;;;;;16.06;61.88;100698.53;4428893;32;20050;-76
2021/06/02 01:32:13;;;;;;;49.20;24.23;;;;;;;16.03;62.02;100699.47;4414224;32;20045;-76
2021/06/02 01:38:17;;;;;;;43.53;22.73;;;;;;;16.30;61.84;100690.87;3985201;32;15022085;-75
2021/06/02 01:44:18;;;;;;;46.63;23.45;;;;;;;15.80;63.10;100698.09;3987875;32;15022443;-75
2021/06/02 01:47:18;;;;;;;44.58;23.85;;;;;;;15.83;63.02;100696.34;4430478;32;20606;-75
2021/06/02 02:22:26;;;;;;;44.78;21.40;;;;;;;15.71;63.45;100688.84;3978115;32;15022239;-75
2021/06/02 02:35:46;;;;;;;43.10;23.30;;;;;;;15.55;63.65;100692.78;3991651;32;15021818;-78
2021/06/02 02:41:09;;;;;;;43.40;23.35;;;;;;;15.47;64.12;100679.41;3961903;32;15721509;-75
2021/06/02 02:52:02;;;;;;;48.85;24.27;;;;;;;15.48;64.22;100687.44;3982940;32;15026321;-75
2021/06/02 02:54:52;;;;;;;48.20;25.15;;;;;;;15.48;64.22;100687.44;4425473;32;20037;-75
2021/06/02 02:57:49;;;;;;;45.55;24.35;;;;;;;15.04;65.00;100677.59;4425906;32;20079;-75
2021/06/02 03:05:29;;;;;;;52.53;26.65;;;;;;;15.31;64.53;100683.28;3987715;32;15022045;-75
2021/06/02 03:08:09;;;;;;;50.00;26.23;;;;;;;15.31;64.53;100683.28;4440577;32;20093;-75
2021/06/02 03:10:42;;;;;;;52.33;25.95;;;;;;;14.93;65.17;100677.28;4439390;32;20054;-75
2021/06/02 03:13:32;;;;;;;48.70;25.33;;;;;;;14.87;65.43;100667.03;4437767;32;20064;-75
2021/06/02 03:16:00;;;;;;;50.42;26.40;;;;;;;14.82;65.48;100670.50;4428199;32;20057;-77
2021/06/02 03:21:44;;;;;;;51.47;25.65;;;;;;;15.16;64.85;100676.66;3982888;32;15022283;-77
2021/06/02 03:24:50;;;;;;;50.95;26.67;;;;;;;15.16;64.85;100676.66;4438508;32;20067;-75
2021/06/02 03:27:31;;;;;;;52.28;27.40;;;;;;;14.67;66.09;100678.78;4440008;32;20060;-75
2021/06/02 03:39:02;;;;;;;65.50;30.40;;;;;;;14.95;65.77;100666.28;3991286;32;15024779;-75
2021/06/02 03:41:47;;;;;;;62.00;30.62;;;;;;;14.56;66.69;100669.97;4436106;32;20074;-75
2021/06/02 03:50:16;;;;;;;61.97;31.58;;;;;;;15.00;66.01;100659.19;4020072;31;15015183;-76
2021/06/02 04:04:45;;;;;;;63.22;31.95;;;;;;;15.07;65.47;100651.16;3989619;32;15022509;-75
2021/06/02 04:07:22;;;;;;;68.37;33.00;;;;;;;15.07;65.47;100651.16;4438893;32;20098;-75
2021/06/02 04:15:23;;;;;;;56.92;30.05;;;;;;;14.63;66.61;100626.41;3990893;32;15021971;-75
2021/06/02 04:17:50;;;;;;;68.47;34.45;;;;;;;14.64;66.22;100628.78;4440552;32;20060;-75
2021/06/02 04:20:19;;;;;;;70.35;34.90;;;;;;;14.52;66.80;100615.53;4428456;32;20116;-75
2021/06/02 04:22:48;;;;;;;67.82;34.80;;;;;;;14.56;66.85;100621.03;4430238;32;20125;-74
2021/06/02 04:25:16;;;;;;;72.47;34.88;;;;;;;14.56;66.82;100627.47;4426452;32;20130;-75
2021/06/02 04:27:45;;;;;;;66.03;33.40;;;;;;;14.53;66.69;100625.59;4425039;32;20133;-75
2021/06/02 04:30:13;;;;;;;66.15;31.33;;;;;;;14.60;66.74;100633.78;4433375;32;20178;-75
2021/06/02 04:32:43;;;;;;;66.50;32.70;;;;;;;14.50;66.73;100635.03;4436876;32;20268;-75
2021/06/02 04:35:13;;;;;;;64.68;32.17;;;;;;;14.60;66.46;100638.69;4433375;32;20054;-75
2021/06/02 04:37:40;;;;;;;64.28;33.05;;;;;;;14.65;66.35;100644.50;4439227;32;20056;-75
2021/06/02 04:40:08;;;;;;;59.78;30.85;;;;;;;14.65;66.35;100633.16;4440234;32;20041;-75
2021/06/02 04:42:37;;;;;;;60.15;31.05;;;;;;;14.67;66.23;100639.12;4437036;32;20053;-75
2021/06/02 04:45:08;;;;;;;62.30;31.35;;;;;;;14.77;65.92;100634.28;4436834;32;20538;-74
2021/06/02 04:47:35;;;;;;;55.60;28.90;;;;;;;14.87;65.57;100633.03;4438646;32;20045;-77
2021/06/02 04:56:06;;;;;;;58.40;28.52;;;;;;;15.53;63.92;100649.91;3984332;32;15021820;-75
2021/06/02 05:19:58;;;;;;;53.15;25.00;;;;;;;16.13;61.53;100649.16;3990754;32;15023987;-75
2021/06/02 05:28:38;;;;;;;43.63;23.17;;;;;;;15.78;62.05;100651.63;3978471;32;15023558;-75
2021/06/02 05:42:25;;;;;;;46.03;22.90;;;;;;;16.74;59.67;100648.53;3977119;32;15021720;-75
2021/06/02 05:50:58;;;;;;;46.47;21.98;;;;;;;16.73;59.32;100644.94;4011418;31;15015425;-75
2021/06/02 06:02:28;;;;;;;45.83;22.37;;;;;;;16.97;58.93;100647.75;4001345;31;15018824;-75
2021/06/02 06:16:57;;;;;;;47.92;22.77;;;;;;;17.41;57.94;100648.66;3981557;32;15024236;-75
2021/06/02 06:24:47;;;;;;;45.00;20.42;;;;;;;17.83;56.82;100661.38;3976948;32;15022414;-75
2021/06/02 06:27:36;;;;;;;37.75;19.05;;;;;;;17.83;56.82;100661.38;4419374;32;20374;-75
2021/06/02 06:30:08;;;;;;;38.47;18.40;;;;;;;17.32;57.92;100648.75;4422253;32;20428;-75
2021/06/02 06:32:37;;;;;;;36.78;17.80;;;;;;;17.55;57.56;100653.63;4412553;32;20072;-75
2021/06/02 06:35:05;;;;;;;40.20;19.23;;;;;;;17.64;57.55;100648.62;4420484;32;20073;-76
2021/06/02 06:37:35;;;;;;;37.75;18.95;;;;;;;17.76;56.97;100653.25;4414793;32;20038;-75
2021/06/02 06:40:07;;;;;;;45.28;20.00;;;;;;;17.83;56.72;100640.69;4409294;32;20058;-75
2021/06/02 06:42:39;;;;;;;37.67;19.75;;;;;;;17.98;56.09;100643.53;4419305;32;20026;-75
2021/06/02 06:45:12;;;;;;;41.00;19.33;;;;;;;18.12;55.63;100639.88;4424811;32;20046;-76
2021/06/02 06:47:39;;;;;;;40.47;19.77;;;;;;;18.18;55.83;100646.44;4410976;32;20109;-75
2021/06/02 06:50:09;;;;;;;36.22;19.42;;;;;;;17.98;55.98;100632.91;4418465;32;20154;-76
2021/06/02 06:52:37;;;;;;;36.47;17.15;;;;;;;18.20;55.58;100650.41;4423486;32;20058;-75
2021/06/02 06:55:05;;;;;;;36.08;18.42;;;;;;;18.23;55.67;100640.84;4416179;32;20106;-76
2021/06/02 06:57:33;;;;;;;38.83;17.85;;;;;;;18.29;55.44;100633.19;4414930;32;20076;-77
2021/06/02 07:00:00;;;;;;;35.25;17.92;;;;;;;18.45;55.02;100640.44;4425074;32;20069;-75
2021/06/02 07:02:27;;;;;;;40.38;19.98;;;;;;;18.56;54.75;100641.38;4401033;32;20102;-76
2021/06/02 07:04:53;;;;;;;33.72;17.50;;;;;;;18.55;54.59;100636.19;4409395;32;20060;-76
2021/06/02 07:07:19;;;;;;;37.55;18.23;;;;;;;18.65;54.36;100632.72;4407684;32;20073;-75
2021/06/02 07:09:45;;;;;;;35.38;18.35;;;;;;;18.77;54.35;100645.03;4405557;32;20042;-76
2021/06/02 07:12:15;;;;;;;32.28;17.92;;;;;;;18.85;53.86;100629.09;4407597;32;20450;-76
2021/06/02 07:14:43;;;;;;;36.08;18.58;;;;;;;19.01;53.41;100631.38;4407653;32;20049;-76
2021/06/02 07:17:09;;;;;;;43.80;19.52;;;;;;;19.10;53.50;100634.88;4398574;32;20142;-76
2021/06/02 07:19:40;;;;;;;38.35;18.20;;;;;;;18.83;54.01;100626.75;4395546;32;20440;-75
2021/06/02 07:22:07;;;;;;;43.15;19.12;;;;;;;18.74;54.23;100634.63;4399843;32;20095;-76
2021/06/02 07:24:34;;;;;;;38.67;17.77;;;;;;;18.83;54.60;100634.50;4421933;32;20968;-76
2021/06/02 07:27:00;;;;;;;32.90;16.58;;;;;;;19.05;53.76;100632.72;4417111;32;20112;-76
2021/06/02 07:29:27;;;;;;;38.42;17.12;;;;;;;19.21;53.50;100634.22;4413639;32;20110;-76
2021/06/02 07:31:53;;;;;;;36.88;17.35;;;;;;;19.13;53.55;100630.22;4411806;32;20140;-76
2021/06/02 07:34:21;;;;;;;39.83;18.98;;;;;;;19.27;53.22;100632.25;4412806;32;20086;-75
2021/06/02 07:36:50;;;;;;;39.40;16.85;;;;;;;19.40;53.11;100633.47;4404186;32;20083;-75
2021/06/02 07:39:15;;;;;;;45.20;18.30;;;;;;;19.45;53.06;100629.06;4413316;32;20043;-76
2021/06/02 07:41:41;;;;;;;42.13;17.10;;;;;;;19.32;53.38;100620.09;4411433;32;20655;-76
2021/06/02 07:44:07;;;;;;;46.03;18.33;;;;;;;19.37;53.35;100616.53;4409306;32;20155;-76
2021/06/02 07:46:34;;;;;;;41.37;16.77;;;;;;;19.57;52.92;100622.19;4414521;32;20736;-76
2021/06/02 07:49:02;;;;;;;38.90;18.08;;;;;;;19.51;52.87;100621.34;4414222;32;20109;-76
2021/06/02 07:51:28;;;;;;;35.97;18.48;;;;;;;19.70;52.39;100623.37;4411805;32;20046;-77
2021/06/02 07:53:53;;;;;;;48.03;18.60;;;;;;;19.73;52.24;100616.66;4409060;32;20400;-76
2021/06/02 07:56:20;;;;;;;40.03;17.40;;;;;;;19.62;52.92;100615.78;4400439;32;20050;-76
2021/06/02 07:58:45;;;;;;;36.13;17.48;;;;;;;19.77;52.39;100617.22;4413522;32;20118;-76
2021/06/02 08:01:12;;;;;;;32.72;17.85;;;;;;;19.98;52.28;100623.66;4405221;32;20413;-76
2021/06/02 08:03:38;;;;;;;39.38;18.08;;;;;;;20.14;51.61;100625.88;4412589;32;20090;-76
2021/06/02 08:06:04;;;;;;;40.58;18.65;;;;;;;20.36;51.06;100620.34;4412415;32;20056;-76
2021/06/02 08:08:30;;;;;;;37.92;17.08;;;;;;;20.22;51.12;100621.25;4412670;32;20042;-77
2021/06/02 08:10:55;;;;;;;33.00;16.27;;;;;;;20.09;51.87;100622.97;4407459;32;20707;-76
2021/06/02 08:13:23;;;;;;;30.17;16.15;;;;;;;20.15;51.80;100618.09;4411842;32;20532;-76
2021/06/02 08:15:49;;;;;;;34.58;17.27;;;;;;;20.43;51.12;100616.22;4412513;32;20049;-76
2021/06/02 08:18:15;;;;;;;37.78;17.25;;;;;;;20.60;50.30;100615.03;4399000;32;20046;-76
2021/06/02 08:20:41;;;;;;;34.95;16.25;;;;;;;20.79;50.20;100618.25;4406847;32;20426;-76
2021/06/02 08:23:07;;;;;;;35.60;17.23;;;;;;;20.94;49.69;100618.84;4396618;32;20050;-76
2021/06/02 08:25:34;;;;;;;30.83;16.02;;;;;;;20.83;49.86;100616.72;4408621;32;20041;-76
2021/06/02 08:28:00;;;;;;;38.10;17.42;;;;;;;21.13;49.25;100623.66;4414757;32;20072;-77
2021/06/02 08:30:26;;;;;;;34.63;17.70;;;;;;;21.18;49.09;100622.91;4395446;32;20174;-76
2021/06/02 08:32:52;;;;;;;36.25;16.77;;;;;;;21.01;49.57;100621.25;4411906;32;20061;-76
2021/06/02 08:35:21;;;;;;;43.90;20.30;;;;;;;20.95;49.87;100623.28;4414075;32;20492;-76
2021/06/02 08:37:47;;;;;;;33.65;18.05;;;;;;;21.17;49.34;100620.56;4412899;32;20046;-75
2021/06/02 08:40:14;;;;;;;41.55;17.67;;;;;;;21.43;48.80;100630.53;4402932;32;20550;-76
2021/06/02 08:42:42;;;;;;;46.75;19.70;;;;;;;21.75;48.02;100630.37;4410658;32;20530;-76
2021/06/02 08:45:09;;;;;;;41.28;18.75;;;;;;;21.66;48.36;100628.47;4414351;32;20038;-76
2021/06/02 08:47:35;;;;;;;41.45;18.37;;;;;;;21.97;47.86;100621.78;4386047;32;20364;-76
2021/06/02 08:50:01;;;;;;;32.67;15.75;;;;;;;22.22;47.11;100620.75;4409735;32;20057;-76
2021/06/02 08:52:27;;;;;;;36.15;15.73;;;;;;;22.59;46.61;100624.91;4410634;32;20413;-75
2021/06/02 08:54:54;;;;;;;37.60;16.35;;;;;;;22.71;46.23;100625.66;4409106;32;20518;-75
2021/06/02 08:57:20;;;;;;;32.90;15.05;;;;;;;22.91;45.64;100628.97;4412621;32;20088;-76
2021/06/02 08:59:46;;;;;;;34.20;15.45;;;;;;;23.31;44.68;100630.41;4408665;32;20482;-76
2021/06/02 09:02:11;;;;;;;36.35;15.77;;;;;;;23.56;44.17;100634.22;4412307;32;20443;-76
2021/06/02 09:04:37;;;;;;;36.53;14.93;;;;;;;23.70;43.91;100633.06;4412066;32;20038;-76
2021/06/02 09:07:05;;;;;;;33.92;14.52;;;;;;;24.05;42.81;100631.00;4398528;32;20735;-76
2021/06/02 09:09:32;;;;;;;26.20;13.07;;;;;;;23.96;42.86;100639.19;4385783;32;20072;-77
2021/06/02 09:12:03;;;;;;;43.25;14.40;;;;;;;24.54;41.77;100641.28;4411916;32;20046;-77
2021/06/02 09:14:37;;;;;;;27.27;13.23;;;;;;;24.82;41.00;100641.81;4412920;32;20108;-76
2021/06/02 09:17:05;;;;;;;29.77;13.18;;;;;;;25.31;40.25;100634.69;4404160;32;20096;-76
2021/06/02 09:22:17;;;;;;;35.45;13.80;;;;;;;25.60;39.54;100635.88;3983457;32;15163759;-76
2021/06/02 09:25:03;;;;;;;24.20;13.00;;;;;;;25.35;40.24;100637.28;4440358;32;20037;-76
2021/06/02 09:27:49;;;;;;;32.88;14.48;;;;;;;25.76;39.65;100636.97;4438814;32;20050;-76
2021/06/02 09:30:22;;;;;;;27.17;13.18;;;;;;;26.24;38.76;100639.63;4440144;32;20398;-76
2021/06/02 09:32:51;;;;;;;28.67;13.43;;;;;;;26.47;38.46;100632.94;4426935;32;20037;-76
2021/06/02 09:35:17;;;;;;;31.05;12.15;;;;;;;26.75;37.87;100636.09;4441310;32;20037;-76
2021/06/02 09:37:47;;;;;;;26.98;14.13;;;;;;;26.96;37.21;100633.34;4422760;32;20200;-76
2021/06/02 09:40:22;;;;;;;29.25;14.25;;;;;;;26.94;37.38;100630.25;4430542;32;20362;-76
2021/06/02 09:42:48;;;;;;;25.73;12.73;;;;;;;27.01;37.57;100624.59;4439655;32;20448;-76
2021/06/02 09:45:15;;;;;;;26.67;12.68;;;;;;;26.98;37.61;100627.78;4438865;32;20363;-75
2021/06/02 09:47:44;;;;;;;29.48;13.93;;;;;;;27.35;36.90;100623.87;4440519;32;20530;-76
2021/06/02 09:50:11;;;;;;;29.70;12.32;;;;;;;27.35;36.98;100616.00;4441349;32;20025;-76
2021/06/02 09:52:40;;;;;;;23.35;12.63;;;;;;;27.55;36.65;100626.09;4436613;32;20052;-76
2021/06/02 09:58:11;;;;;;;33.60;11.88;;;;;;;27.93;36.86;100624.41;3963133;32;15028663;-76
2021/06/02 10:01:00;;;;;;;24.50;12.63;;;;;;;27.93;36.86;100624.41;4413966;32;20549;-76
2021/06/02 10:03:29;;;;;;;24.98;12.50;;;;;;;27.51;37.28;100611.19;4402537;32;20077;-76
2021/06/02 10:05:55;;;;;;;30.15;12.30;;;;;;;27.64;37.17;100620.59;4409518;32;20624;-76
2021/06/02 10:08:37;;;;;;;26.92;11.68;;;;;;;27.91;36.66;100615.53;4406924;32;20042;-76
2021/06/02 10:11:12;;;;;;;26.95;13.00;;;;;;;28.05;36.42;100612.03;4403749;32;20045;-76
2021/06/02 10:13:39;;;;;;;30.05;11.88;;;;;;;28.38;35.45;100613.28;4406002;32;20582;-76
2021/06/02 10:16:05;;;;;;;28.48;11.20;;;;;;;28.74;34.64;100608.38;4406873;32;20086;-76
2021/06/02 10:18:33;;;;;;;25.92;11.38;;;;;;;29.23;34.01;100611.22;4397177;32;20395;-77
2021/06/02 10:23:39;;;;;;;27.27;12.13;;;;;;;30.43;31.89;100603.66;3986591;32;15023494;-77
2021/06/02 10:26:06;;;;;;;24.15;10.85;;;;;;;30.43;31.89;100603.66;4427991;32;20108;-77
2021/06/02 10:28:33;;;;;;;29.50;11.15;;;;;;;30.30;31.82;100600.16;4427493;32;20042;-77
2021/06/02 10:31:01;;;;;;;25.00;11.60;;;;;;;29.71;33.01;100592.87;4430791;32;20069;-77
2021/06/02 10:33:29;;;;;;;28.15;9.98;;;;;;;30.10;32.67;100596.03;4428680;32;20058;-77
2021/06/02 10:35:56;;;;;;;21.92;10.82;;;;;;;30.62;31.78;100594.56;4427342;32;20499;-77
2021/06/02 10:38:24;;;;;;;19.77;9.70;;;;;;;30.92;31.14;100593.75;4427748;32;20461;-76
2021/06/02 10:40:51;;;;;;;29.12;11.02;;;;;;;31.64;29.94;100583.81;4438169;32;20053;-76
2021/06/02 10:46:07;;;;;;;21.50;10.38;;;;;;;32.97;28.19;100598.56;3957809;32;15724512;-76
2021/06/02 10:59:44;;;;;;;24.33;9.68;;;;;;;33.58;27.62;100587.72;4007254;31;15021658;-76
2021/06/02 11:07:50;;;;;;;24.08;9.55;;;;;;;34.26;26.16;100584.56;3980651;32;15021725;-76
2021/06/02 11:10:16;;;;;;;21.62;8.98;;;;;;;34.26;26.16;100584.56;4438590;32;20228;-77
2021/06/02 11:23:29;;;;;;;22.83;8.07;;;;;;;35.00;25.82;100572.19;3987097;32;15026973;-77
2021/06/02 11:26:29;;;;;;;20.25;8.93;;;;;;;35.00;25.82;100572.19;4434561;32;20108;-76
2021/06/02 11:28:55;;;;;;;27.90;8.02;;;;;;;35.13;25.05;100569.59;4434282;32;20061;-76
2021/06/02 11:34:28;;;;;;;19.33;8.57;;;;;;;35.45;25.10;100557.41;3992015;32;15022447;-76
2021/06/02 11:37:11;;;;;;;26.05;8.40;;;;;;;35.45;25.10;100557.41;4438698;32;20085;-77
2021/06/02 11:39:38;;;;;;;20.83;7.68;;;;;;;35.25;24.69;100564.62;4440931;32;20055;-76
2021/06/02 11:42:06;;;;;;;26.70;8.32;;;;;;;35.33;24.66;100550.66;4439276;32;20057;-76
2021/06/02 11:44:35;;;;;;;15.85;7.03;;;;;;;35.43;24.76;100559.44;4425160;32;20120;-77
2021/06/02 11:47:01;;;;;;;18.12;6.53;;;;;;;35.74;24.10;100552.25;4438454;32;20072;-76
2021/06/02 11:49:30;;;;;;;20.25;6.37;;;;;;;36.35;23.47;100551.59;4440018;32;20123;-76
2021/06/02 11:52:05;;;;;;;16.33;6.30;;;;;;;36.93;22.60;100546.94;4438667;32;20067;-76
2021/06/02 12:00:09;;;;;;;19.60;5.40;;;;;;;37.26;21.80;100556.56;3980517;32;15022723;-76
2021/06/02 12:02:35;;;;;;;17.92;5.62;;;;;;;37.26;21.80;100556.56;4422288;32;20042;-75
2021/06/02 12:08:14;;;;;;;15.57;5.70;;;;;;;37.08;22.04;100554.53;3987274;32;15022082;-77
2021/06/02 12:15:59;;;;;;;13.82;5.65;;;;;;;36.38;23.24;100549.59;3982696;32;15021793;-77
2021/06/02 12:18:46;;;;;;;14.85;5.35;;;;;;;36.38;23.24;100549.59;4441386;32;20908;-76
2021/06/02 12:26:41;;;;;;;14.55;5.07;;;;;;;37.51;22.21;100550.13;3975755;32;15060245;-78
2021/06/02 12:29:10;;;;;;;11.80;4.62;;;;;;;37.51;22.21;100550.13;4422165;32;20049;-76
2021/06/02 12:39:33;;;;;;;13.60;4.72;;;;;;;37.91;21.73;100547.72;3986404;32;15198733;-77
2021/06/02 12:42:01;;;;;;;18.52;4.70;;;;;;;37.78;21.77;100554.22;4439219;32;20411;-77
2021/06/02 12:44:30;;;;;;;14.13;4.80;;;;;;;37.70;21.91;100555.84;4440061;32;20042;-77
2021/06/02 12:47:15;;;;;;;14.35;5.60;;;;;;;37.39;22.32;100546.41;4437230;32;20398;-78
2021/06/02 12:49:48;;;;;;;13.27;5.25;;;;;;;37.03;22.70;100546.88;4430859;32;20057;-78
2021/06/02 12:52:14;;;;;;;9.20;5.03;;;;;;;37.04;22.72;100546.22;4427001;32;20493;-77
2021/06/02 12:54:41;;;;;;;8.80;4.45;;;;;;;36.88;22.43;100542.19;4425211;32;20042;-77
2021/06/02 12:57:07;;;;;;;9.07;4.72;;;;;;;36.98;22.49;100545.81;4438186;32;20594;-77
2021/06/02 12:59:36;;;;;;;13.82;4.45;;;;;;;36.56;22.77;100536.97;4441814;32;20715;-77
2021/06/02 13:02:05;;;;;;;15.45;5.05;;;;;;;36.90;22.29;100535.69;4424752;32;20077;-77
2021/06/02 13:04:32;;;;;;;10.55;4.57;;;;;;;37.68;21.70;100530.06;4425605;32;20038;-77
2021/06/02 13:06:58;;;;;;;12.82;4.15;;;;;;;38.49;20.63;100538.91;4414918;32;20107;-78
2021/06/02 13:09:25;;;;;;;11.60;4.12;;;;;;;38.93;20.20;100541.66;4425932;32;20057;-77
2021/06/02 13:11:54;;;;;;;11.07;3.70;;;;;;;39.29;19.82;100546.03;4414556;32;20084;-77
2021/06/02 13:14:32;;;;;;;10.45;4.22;;;;;;;39.81;19.35;100524.78;4415955;32;20549;-77
2021/06/02 13:16:58;;;;;;;16.80;4.62;;;;;;;39.85;19.40;100522.84;4422845;32;20128;-77
2021/06/02 13:19:42;;;;;;;14.45;4.05;;;;;;;40.07;18.88;100527.03;4419876;32;20492;-77
2021/06/02 13:22:23;;;;;;;15.55;4.45;;;;;;;40.41;18.51;100534.84;4411382;32;20556;-77
2021/06/02 13:24:49;;;;;;;16.92;5.15;;;;;;;40.87;17.96;100533.62;4413964;32;20049;-77
2021/06/02 13:27:18;;;;;;;13.27;4.37;;;;;;;41.59;17.24;100528.50;4422575;32;20038;-76
2021/06/02 13:32:55;;;;;;;9.25;4.72;;;;;;;42.96;16.50;100523.88;3981615;32;15021938;-77
2021/06/02 13:35:21;;;;;;;11.70;4.32;;;;;;;42.58;16.87;100505.13;4430152;32;20049;-77
2021/06/02 13:37:47;;;;;;;10.95;4.03;;;;;;;41.66;17.23;100524.44;4436787;32;20038;-77
2021/06/02 13:40:17;;;;;;;15.20;3.83;;;;;;;42.23;16.77;100519.78;4440132;32;20108;-77
2021/06/02 13:43:18;;;;;;;9.15;4.05;;;;;;;42.62;16.47;100505.34;4438113;32;20457;-78
2021/06/02 13:51:29;;;;;;;15.05;4.95;;;;;;;42.53;16.92;100520.44;3979558;32;15022148;-77
2021/06/02 13:57:09;;;;;;;12.55;4.12;;;;;;;44.60;15.35;100521.69;3963209;32;15023916;-77
2021/06/02 14:02:14;;;;;;;10.35;3.80;;;;;;;46.12;14.16;100514.31;3942944;32;15724482;-77
2021/06/02 14:04:41;;;;;;;14.05;3.58;;;;;;;46.12;14.16;100514.31;4426741;32;20107;-77
2021/06/02 14:07:09;;;;;;;10.02;3.83;;;;;;;44.99;14.83;100517.16;4430355;32;20049;-77
2021/06/02 14:09:38;;;;;;;11.80;3.75;;;;;;;44.69;15.12;100523.53;4425936;32;20392;-77
2021/06/02 14:12:05;;;;;;;8.07;3.50;;;;;;;44.06;15.67;100521.81;4432559;32;20362;-76
2021/06/02 14:14:31;;;;;;;8.88;3.70;;;;;;;43.88;15.80;100518.16;4440404;32;20055;-75
2021/06/02 14:16:57;;;;;;;12.07;3.53;;;;;;;43.35;16.16;100509.28;4438386;32;20041;-76
2021/06/02 14:19:25;;;;;;;10.88;3.67;;;;;;;44.06;15.67;100516.66;4426783;32;20046;-76
2021/06/02 14:21:51;;;;;;;13.15;3.70;;;;;;;44.51;15.38;100516.91;4432785;32;20073;-76
2021/06/02 14:24:17;;;;;;;9.70;3.97;;;;;;;44.93;14.97;100514.72;4440350;32;20073;-75
2021/06/02 14:26:45;;;;;;;5.87;3.55;;;;;;;44.82;15.03;100510.63;4433764;32;20102;-76
2021/06/02 14:29:13;;;;;;;7.43;3.28;;;;;;;45.65;14.46;100517.25;4439996;32;20140;-76
2021/06/02 14:31:40;;;;;;;12.37;3.60;;;;;;;46.62;13.91;100511.28;4433813;32;20042;-76
2021/06/02 14:34:08;;;;;;;14.57;4.70;;;;;;;45.79;14.58;100511.75;4435754;32;20025;-76
2021/06/02 14:36:33;;;;;;;15.40;4.25;;;;;;;46.94;13.62;100515.94;4434447;32;20129;-76
2021/06/02 14:39:01;;;;;;;11.75;4.00;;;;;;;46.05;14.20;100505.84;4441261;32;20049;-76
2021/06/02 14:41:27;;;;;;;9.02;3.70;;;;;;;46.00;14.38;100513.91;4439448;32;20329;-77
2021/06/02 14:43:54;;;;;;;11.07;3.78;;;;;;;46.37;14.13;100509.81;4432739;32;20362;-76
2021/06/02 14:46:19;;;;;;;10.30;3.55;;;;;;;46.39;13.85;100510.66;4429830;32;20045;-76
2021/06/02 14:48:45;;;;;;;10.40;3.95;;;;;;;47.32;13.22;100513.97;4428005;32;20446;-77
2021/06/02 14:51:11;;;;;;;11.40;3.92;;;;;;;46.95;13.32;100496.59;4427509;32;20049;-76
2021/06/02 14:53:37;;;;;;;13.95;3.58;;;;;;;46.36;13.90;100497.16;4439444;32;20110;-76
2021/06/02 14:56:03;;;;;;;12.68;4.35;;;;;;;46.23;14.16;100501.22;4430965;32;20397;-76
2021/06/02 14:58:29;;;;;;;11.23;3.70;;;;;;;46.70;13.80;100509.28;4441309;32;20029;-76
2021/06/02 15:00:55;;;;;;;8.98;3.80;;;;;;;46.76;13.77;100509.47;4423894;32;20058;-76
2021/06/02 15:03:21;;;;;;;13.73;4.05;;;;;;;45.73;14.39;100498.91;4426042;32;20037;-76
2021/06/02 15:05:52;;;;;;;8.57;3.67;;;;;;;45.09;14.84;100500.50;4433057;32;20037;-76
2021/06/02 15:08:20;;;;;;;9.90;3.92;;;;;;;43.26;16.24;100497.78;4440283;32;20109;-76
2021/06/02 15:10:47;;;;;;;8.27;4.20;;;;;;;42.35;16.89;100498.91;4439908;32;20159;-76
2021/06/02 15:13:17;;;;;;;9.13;3.83;;;;;;;42.60;16.74;100502.28;4414266;32;20049;-78
2021/06/02 15:15:43;;;;;;;11.70;4.28;;;;;;;42.26;17.05;100496.97;4416030;32;20072;-76
2021/06/02 15:18:09;;;;;;;14.63;4.32;;;;;;;43.02;16.48;100504.19;4421923;32;20041;-77
2021/06/02 15:20:35;;;;;;;9.75;4.10;;;;;;;43.97;15.81;100505.94;4414381;32;20092;-76
2021/06/02 15:23:01;;;;;;;8.70;4.12;;;;;;;44.52;15.08;100509.53;4428638;32;20050;-75
2021/06/02 15:25:27;;;;;;;11.75;3.90;;;;;;;45.86;14.03;100498.59;4428228;32;20045;-76
2021/06/02 15:27:55;;;;;;;8.07;4.03;;;;;;;46.01;14.00;100490.88;4418000;32;20053;-76
2021/06/02 15:30:23;;;;;;;5.30;3.83;;;;;;;46.31;13.76;100492.53;4400544;32;20491;-76
2021/06/02 15:32:50;;;;;;;8.95;4.07;;;;;;;45.74;14.12;100501.22;4427835;32;20083;-75
2021/06/02 15:35:17;;;;;;;11.20;4.10;;;;;;;45.37;14.40;100497.72;4426662;32;20139;-76
2021/06/02 15:37:45;;;;;;;8.45;4.32;;;;;;;44.66;14.90;100489.28;4415077;32;20045;-75
2021/06/02 15:40:14;;;;;;;9.93;4.78;;;;;;;43.82;15.46;100483.06;4416095;32;20383;-76
2021/06/02 15:42:40;;;;;;;9.82;4.03;;;;;;;43.25;16.00;100469.59;4413955;32;20046;-76